Time;durP1;ratioP1;P1;durP2;ratioP2;P2;SDS_P1;SDS_P2;PMS_P1;PMS_P2;Temp;Humidity;BMP_temperature;BMP_pressure;BME280_temperature;BME280_humidity;BME280_pressure;Samples;Min_cycle;Max_cycle;Signal;HPM_P1;HPM_P2
2021/07/21 00:00:39;;;;;;;9.48;5.22;;;17.30;93.00;;;;;;5144406;27;20054;-80
2021/07/21 00:03:05;;;;;;;8.50;4.72;;;17.20;92.90;;;;;;5161713;27;20062;-80
2021/07/21 00:05:33;;;;;;;11.15;5.35;;;17.20;92.50;;;;;;5162182;27;20044;-80
2021/07/21 00:07:58;;;;;;;10.20;5.07;;;17.20;92.60;;;;;;5145359;27;20015;-79
2021/07/21 00:10:26;;;;;;;11.63;5.32;;;17.20;93.00;;;;;;5145922;27;20024;-79
2021/07/21 00:15:46;;;;;;;6.70;5.07;;;17.30;92.90;;;;;;5161952;27;20125;-79
2021/07/21 00:18:28;;;;;;;8.75;5.82;;;17.30;92.70;;;;;;5144003;27;20027;-79
2021/07/21 00:20:54;;;;;;;8.32;5.43;;;17.40;92.50;;;;;;5143787;27;20027;-80
2021/07/21 00:23:20;;;;;;;10.10;4.90;;;17.40;92.00;;;;;;5144003;27;20038;-80
2021/07/21 00:25:47;;;;;;;10.27;5.25;;;17.40;91.80;;;;;;5161911;27;20031;-81
2021/07/21 00:28:13;;;;;;;9.02;5.30;;;17.50;92.10;;;;;;5142941;27;20027;-80
2021/07/21 00:30:40;;;;;;;8.73;4.93;;;17.50;92.00;;;;;;5143571;27;20023;-80
2021/07/21 00:33:05;;;;;;;5.97;4.53;;;17.40;91.60;;;;;;5143873;27;20066;-82
2021/07/21 00:35:31;;;;;;;7.15;4.65;;;17.50;91.90;;;;;;5143420;27;20023;-80
2021/07/21 00:37:57;;;;;;;7.32;4.95;;;17.50;92.00;;;;;;5143600;27;20045;-84
2021/07/21 00:40:22;;;;;;;6.50;4.13;;;17.50;91.90;;;;;;5162065;27;20018;-80
2021/07/21 00:42:48;;;;;;;8.32;4.32;;;17.40;91.80;;;;;;5138475;27;20022;-80
2021/07/21 00:45:14;;;;;;;;;;;17.40;91.60;;;;;;5138712;27;20085;-83
2021/07/21 00:47:40;;;;;;;9.45;4.72;;;17.50;91.30;;;;;;5132991;27;19908;-81
2021/07/21 00:50:08;;;;;;;9.05;4.50;;;17.40;91.30;;;;;;5136812;27;20076;-80
2021/07/21 00:52:35;;;;;;;7.05;4.15;;;17.40;91.20;;;;;;5158106;27;20007;-87
2021/07/21 00:55:01;;;;;;;7.50;4.28;;;17.30;91.20;;;;;;5162489;27;20011;-82
2021/07/21 00:57:27;;;;;;;7.65;4.32;;;17.30;91.10;;;;;;5144413;27;20041;-81
2021/07/21 00:59:55;;;;;;;6.25;3.95;;;17.30;91.10;;;;;;5144169;27;20031;-80
2021/07/21 01:02:21;;;;;;;6.82;4.30;;;17.20;91.40;;;;;;5143828;27;20043;-82
2021/07/21 01:04:46;;;;;;;6.85;4.68;;;17.20;91.50;;;;;;5157787;27;20015;-79
2021/07/21 01:07:12;;;;;;;7.03;4.20;;;17.10;91.70;;;;;;5160105;27;20015;-79
2021/07/21 01:09:42;;;;;;;8.18;4.63;;;17.10;91.70;;;;;;5141935;27;20038;-80
2021/07/21 01:12:19;;;;;;;7.93;4.57;;;17.10;91.80;;;;;;5160571;27;20019;-80
2021/07/21 01:14:51;;;;;;;7.60;4.82;;;17.00;91.70;;;;;;5159393;27;20051;-80
2021/07/21 01:17:25;;;;;;;7.88;5.47;;;17.00;91.40;;;;;;5142699;27;20011;-81
2021/07/21 01:20:12;;;;;;;6.47;4.38;;;17.00;91.00;;;;;;5142776;27;20011;-79
2021/07/21 01:22:41;;;;;;;7.22;4.32;;;17.10;90.50;;;;;;5142955;27;20079;-80
2021/07/21 01:25:19;;;;;;;13.98;4.63;;;17.10;91.20;;;;;;5142479;27;20060;-79
2021/07/21 01:27:53;;;;;;;10.63;4.97;;;17.10;91.20;;;;;;5142716;27;20098;-80
2021/07/21 01:30:25;;;;;;;10.20;4.57;;;17.00;90.90;;;;;;5160737;27;20031;-80
2021/07/21 01:32:59;;;;;;;7.03;4.05;;;17.00;90.50;;;;;;5140670;27;20011;-79
2021/07/21 01:35:29;;;;;;;6.95;4.75;;;17.20;88.60;;;;;;5159422;27;20075;-80
2021/07/21 01:37:58;;;;;;;6.78;4.25;;;17.30;89.20;;;;;;5159321;27;20043;-80
2021/07/21 01:40:33;;;;;;;7.47;4.60;;;17.40;90.00;;;;;;5159008;27;20031;-80
2021/07/21 01:43:01;;;;;;;8.40;4.63;;;17.40;89.70;;;;;;5141088;27;20031;-79
2021/07/21 01:45:30;;;;;;;7.38;4.47;;;17.40;90.00;;;;;;5158954;27;20044;-79
2021/07/21 01:47:59;;;;;;;7.25;4.90;;;17.40;90.20;;;;;;5159474;27;20048;-80
2021/07/21 01:50:26;;;;;;;7.25;4.18;;;17.40;90.30;;;;;;5140432;27;20039;-79
2021/07/21 01:52:53;;;;;;;7.53;4.57;;;17.30;90.50;;;;;;5158664;27;20015;-79
2021/07/21 01:55:23;;;;;;;9.68;4.53;;;17.20;90.10;;;;;;5158382;27;20022;-79
2021/07/21 01:57:50;;;;;;;7.65;5.15;;;17.20;90.40;;;;;;5139837;27;20031;-79
2021/07/21 02:00:17;;;;;;;9.50;4.65;;;17.20;90.70;;;;;;5140797;27;20048;-79
2021/07/21 02:02:47;;;;;;;10.55;4.55;;;17.20;90.80;;;;;;5140552;27;20019;-79
2021/07/21 02:05:14;;;;;;;7.13;4.47;;;17.20;90.70;;;;;;5140382;27;20053;-80
2021/07/21 02:07:44;;;;;;;8.32;4.85;;;17.20;90.80;;;;;;5158937;27;20087;-80
2021/07/21 02:10:18;;;;;;;6.30;3.97;;;17.20;91.10;;;;;;5141623;27;20028;-80
2021/07/21 02:12:52;;;;;;;6.65;3.90;;;17.30;90.70;;;;;;5141177;27;20057;-80
2021/07/21 02:15:18;;;;;;;9.98;4.68;;;17.30;90.60;;;;;;5158456;27;20034;-80
2021/07/21 02:17:46;;;;;;;7.55;5.03;;;17.20;90.40;;;;;;5141241;27;20158;-81
2021/07/21 02:20:12;;;;;;;7.70;4.57;;;17.30;90.30;;;;;;5140585;27;20012;-80
2021/07/21 02:22:41;;;;;;;9.40;4.97;;;17.40;86.20;;;;;;5140174;27;20023;-80
2021/07/21 02:25:09;;;;;;;7.63;4.63;;;17.50;86.90;;;;;;5141451;27;20027;-81
2021/07/21 02:27:35;;;;;;;7.80;5.20;;;17.50;87.60;;;;;;5138971;27;20023;-79
2021/07/21 02:30:02;;;;;;;6.65;4.10;;;17.50;88.10;;;;;;5156184;27;20034;-79
2021/07/21 02:32:30;;;;;;;7.25;4.63;;;17.50;89.10;;;;;;5139688;27;20019;-80
2021/07/21 02:35:00;;;;;;;9.63;5.03;;;17.40;88.90;;;;;;5155080;27;20075;-80
2021/07/21 02:37:26;;;;;;;9.90;4.63;;;17.30;89.10;;;;;;5155924;27;20011;-79
2021/07/21 02:39:53;;;;;;;8.88;4.80;;;17.30;89.50;;;;;;5154775;27;20014;-80
2021/07/21 02:42:19;;;;;;;9.75;4.72;;;17.30;88.60;;;;;;5156655;27;20007;-80
2021/07/21 02:44:46;;;;;;;9.10;4.55;;;17.30;88.80;;;;;;5139600;28;20035;-82
2021/07/21 02:47:14;;;;;;;6.78;4.40;;;17.30;90.00;;;;;;5140944;27;20008;-80
2021/07/21 02:49:41;;;;;;;7.95;5.32;;;17.20;89.20;;;;;;5158736;27;20078;-80
2021/07/21 02:52:43;;;;;;;7.35;4.55;;;17.20;90.20;;;;;;5139997;27;20024;-80
2021/07/21 03:03:38;;;;;;;8.18;4.00;;;17.00;91.10;;;;;;5678143;23;20030;-78
2021/07/21 03:06:07;;;;;;;9.35;5.30;;;16.90;91.40;;;;;;5040414;28;20052;-79
2021/07/21 03:08:33;;;;;;;7.18;4.63;;;16.90;91.60;;;;;;5056406;28;20020;-79
2021/07/21 03:11:01;;;;;;;9.75;4.97;;;16.90;91.60;;;;;;5061270;28;20056;-78
2021/07/21 03:13:35;;;;;;;7.53;4.68;;;16.90;91.50;;;;;;5043017;28;20042;-78
2021/07/21 03:16:02;;;;;;;8.63;4.78;;;16.90;91.10;;;;;;5044336;28;20006;-79
2021/07/21 03:18:30;;;;;;;6.88;4.57;;;17.00;91.10;;;;;;5061713;28;20033;-79
2021/07/21 03:20:56;;;;;;;6.88;4.65;;;17.10;90.80;;;;;;5043424;28;20057;-81
2021/07/21 03:23:26;;;;;;;8.20;4.57;;;17.10;90.70;;;;;;5061222;28;20024;-81
2021/07/21 03:25:55;;;;;;;10.48;5.03;;;17.20;90.60;;;;;;5043924;28;20030;-80
2021/07/21 03:28:24;;;;;;;8.73;4.68;;;17.20;90.30;;;;;;5044680;28;20030;-81
2021/07/21 03:30:51;;;;;;;6.25;4.53;;;17.30;90.20;;;;;;5044995;28;20016;-81
2021/07/21 03:33:18;;;;;;;8.38;5.00;;;17.30;89.60;;;;;;5044479;28;20128;-80
2021/07/21 03:35:46;;;;;;;10.85;4.22;;;17.40;89.50;;;;;;5060349;28;20039;-81
2021/07/21 03:38:13;;;;;;;9.70;5.10;;;17.50;89.20;;;;;;5059890;28;20018;-81
2021/07/21 03:40:40;;;;;;;8.75;4.70;;;17.50;89.00;;;;;;5057889;28;20026;-82
2021/07/21 03:43:06;;;;;;;9.23;4.65;;;17.50;88.90;;;;;;5034212;28;20037;-84
2021/07/21 03:45:34;;;;;;;9.80;4.82;;;17.60;88.50;;;;;;5046332;28;20037;-84
2021/07/21 03:48:00;;;;;;;10.05;5.05;;;17.70;88.60;;;;;;5023437;28;20064;-86
2021/07/21 03:50:26;;;;;;;9.25;5.13;;;17.80;88.50;;;;;;5019185;28;20030;-86
2021/07/21 03:52:54;;;;;;;6.63;4.25;;;17.80;88.10;;;;;;5034981;28;20053;-85
2021/07/21 03:55:22;;;;;;;7.88;4.60;;;17.90;88.00;;;;;;5031817;28;20082;-84
2021/07/21 03:57:49;;;;;;;8.68;4.50;;;18.00;88.70;;;;;;5013155;28;20052;-83
2021/07/21 04:00:20;;;;;;;9.50;4.43;;;18.10;88.20;;;;;;5012738;28;20025;-86
2021/07/21 04:02:51;;;;;;;12.85;5.00;;;18.20;87.60;;;;;;5030075;28;20041;-86
2021/07/21 04:05:17;;;;;;;10.38;5.53;;;18.30;86.40;;;;;;5030107;28;20045;-88
2021/07/21 04:07:45;;;;;;;14.98;4.72;;;18.40;84.80;;;;;;5028408;28;20306;-86
2021/07/21 04:10:12;;;;;;;7.60;4.78;;;18.60;84.30;;;;;;5004569;28;20332;-88
2021/07/21 04:12:44;;;;;;;9.10;4.97;;;18.60;83.60;;;;;;5026646;28;20087;-87
2021/07/21 04:15:11;;;;;;;9.48;5.32;;;18.80;84.20;;;;;;5026213;28;20021;-88
2021/07/21 04:17:37;;;;;;;7.63;4.90;;;18.80;84.10;;;;;;5008873;28;20113;-87
2021/07/21 04:20:05;;;;;;;9.30;5.10;;;18.90;83.90;;;;;;5025916;28;20497;-88
2021/07/21 04:22:31;;;;;;;10.40;4.75;;;18.90;83.30;;;;;;5026020;28;20055;-87
2021/07/21 04:24:58;;;;;;;7.72;4.95;;;18.90;83.20;;;;;;5026539;28;20079;-87
2021/07/21 04:27:24;;;;;;;9.63;4.85;;;18.90;83.00;;;;;;5026033;28;20120;-87
2021/07/21 04:29:51;;;;;;;7.25;5.07;;;19.00;83.10;;;;;;5026702;28;20482;-87
2021/07/21 04:32:18;;;;;;;10.30;4.60;;;18.90;82.80;;;;;;5007959;28;20030;-87
2021/07/21 04:34:45;;;;;;;8.70;4.78;;;19.00;83.20;;;;;;5026142;28;20060;-86
2021/07/21 04:37:11;;;;;;;6.55;4.47;;;19.00;83.00;;;;;;5008114;28;20043;-87
2021/07/21 04:39:37;;;;;;;10.50;4.97;;;19.00;83.30;;;;;;5026154;28;20418;-89
2021/07/21 04:42:04;;;;;;;6.75;4.75;;;19.00;83.60;;;;;;5008525;28;20092;-80
2021/07/21 04:44:30;;;;;;;8.13;5.10;;;19.10;83.80;;;;;;5025864;28;20105;-81
2021/07/21 04:46:59;;;;;;;11.85;5.68;;;19.10;83.80;;;;;;5008347;28;20033;-88
2021/07/21 04:49:26;;;;;;;8.38;5.10;;;19.20;83.90;;;;;;5007668;28;20025;-89
2021/07/21 04:51:55;;;;;;;12.73;5.40;;;19.30;83.20;;;;;;5025999;28;20025;-88
2021/07/21 04:54:21;;;;;;;7.63;5.03;;;19.30;83.00;;;;;;5008192;28;20203;-88
2021/07/21 04:56:47;;;;;;;12.80;5.35;;;19.40;82.80;;;;;;5025956;28;20148;-85
2021/07/21 04:59:13;;;;;;;7.80;5.32;;;19.60;81.70;;;;;;5024974;28;20056;-87
2021/07/21 05:01:39;;;;;;;12.27;5.68;;;19.70;81.40;;;;;;5007912;28;20041;-87
2021/07/21 05:04:06;;;;;;;9.75;5.63;;;19.80;81.00;;;;;;5007129;28;20162;-87
2021/07/21 05:06:32;;;;;;;8.15;5.72;;;20.00;81.00;;;;;;5007124;28;20079;-86
2021/07/21 05:08:58;;;;;;;10.43;5.93;;;20.00;82.50;;;;;;5007095;28;20026;-88
2021/07/21 05:11:25;;;;;;;7.63;5.10;;;20.20;82.10;;;;;;5007410;28;20038;-83
2021/07/21 05:13:51;;;;;;;9.02;5.80;;;20.30;79.80;;;;;;5026096;28;20079;-84
2021/07/21 05:16:17;;;;;;;8.50;5.07;;;20.50;79.30;;;;;;5024910;28;20026;-85
2021/07/21 05:18:46;;;;;;;7.55;5.55;;;20.60;78.00;;;;;;5025406;28;20312;-81
2021/07/21 05:21:12;;;;;;;8.20;5.88;;;20.70;77.20;;;;;;5024460;28;20029;-83
2021/07/21 05:23:38;;;;;;;10.07;5.70;;;20.80;77.00;;;;;;5007363;28;20052;-84
2021/07/21 05:26:04;;;;;;;7.10;5.00;;;20.90;76.50;;;;;;5007248;28;20069;-84
2021/07/21 05:28:30;;;;;;;7.25;5.43;;;21.10;77.20;;;;;;5006800;28;20446;-84
2021/07/21 05:30:56;;;;;;;8.20;5.18;;;21.40;78.90;;;;;;5023912;28;20025;-84
2021/07/21 05:33:22;;;;;;;8.32;5.60;;;21.60;78.50;;;;;;5006971;28;20087;-84
2021/07/21 05:35:49;;;;;;;9.25;5.28;;;21.80;78.00;;;;;;5025073;28;20025;-84
2021/07/21 05:38:15;;;;;;;7.43;5.72;;;21.90;77.10;;;;;;5024109;28;20159;-83
2021/07/21 05:40:41;;;;;;;8.05;5.07;;;22.00;75.20;;;;;;5007056;28;20025;-84
2021/07/21 05:43:07;;;;;;;8.60;5.07;;;22.00;71.10;;;;;;5007194;28;20103;-85
2021/07/21 05:45:33;;;;;;;10.15;5.35;;;22.10;68.40;;;;;;5024623;28;20057;-85
2021/07/21 05:47:58;;;;;;;9.93;6.70;;;22.30;67.10;;;;;;5024345;28;20104;-85
2021/07/21 05:50:24;;;;;;;8.15;5.40;;;22.50;67.90;;;;;;5024508;28;20112;-85
2021/07/21 05:52:50;;;;;;;9.98;5.85;;;22.70;66.10;;;;;;5024905;28;20104;-86
2021/07/21 05:55:16;;;;;;;13.48;6.07;;;22.70;65.50;;;;;;5006353;28;20580;-85
2021/07/21 05:57:44;;;;;;;12.63;6.22;;;22.80;63.90;;;;;;5006386;28;20029;-84
2021/07/21 06:00:11;;;;;;;10.00;5.38;;;23.20;63.00;;;;;;5023884;28;20025;-83
2021/07/21 06:02:37;;;;;;;8.90;5.43;;;24.10;61.40;;;;;;5006061;28;20044;-82
2021/07/21 06:05:04;;;;;;;6.47;4.75;;;25.00;56.70;;;;;;5024026;28;20395;-82
2021/07/21 06:07:30;;;;;;;7.13;5.07;;;26.30;52.00;;;;;;5006730;28;20029;-82
2021/07/21 06:09:55;;;;;;;8.02;4.38;;;27.30;49.00;;;;;;5009793;28;20029;-82
2021/07/21 06:12:21;;;;;;;6.93;4.30;;;28.20;45.00;;;;;;5027074;28;20113;-81
2021/07/21 06:14:47;;;;;;;9.80;4.80;;;28.70;43.40;;;;;;5027546;28;20045;-81
2021/07/21 06:17:13;;;;;;;9.02;3.60;;;29.30;42.90;;;;;;5009038;28;20117;-83
2021/07/21 06:19:39;;;;;;;10.00;3.40;;;29.90;40.50;;;;;;5009829;28;20500;-83
2021/07/21 06:22:06;;;;;;;7.53;3.78;;;30.40;39.50;;;;;;5027606;28;20060;-81
2021/07/21 06:24:32;;;;;;;9.80;4.18;;;31.10;37.80;;;;;;5026819;28;20025;-82
2021/07/21 06:26:59;;;;;;;4.65;3.58;;;31.70;36.70;;;;;;5026881;28;20032;-83
2021/07/21 06:29:26;;;;;;;4.82;2.75;;;32.00;37.20;;;;;;5026931;28;20171;-84
2021/07/21 06:31:51;;;;;;;5.18;2.97;;;32.10;35.60;;;;;;5026406;28;20078;-83
2021/07/21 06:34:17;;;;;;;7.53;2.53;;;31.30;35.80;;;;;;5008991;28;20456;-82
2021/07/21 06:36:43;;;;;;;6.57;2.80;;;29.70;37.70;;;;;;5026945;28;20037;-82
2021/07/21 06:39:09;;;;;;;5.40;2.28;;;28.30;40.80;;;;;;5026459;28;20100;-83
2021/07/21 06:41:35;;;;;;;4.35;2.28;;;27.10;42.70;;;;;;5009200;28;20124;-83
2021/07/21 06:44:00;;;;;;;4.82;2.63;;;26.20;45.30;;;;;;5009039;28;20029;-82
2021/07/21 06:46:27;;;;;;;6.45;2.25;;;25.60;46.90;;;;;;5026762;28;20033;-81
2021/07/21 06:48:53;;;;;;;3.55;2.25;;;25.00;48.60;;;;;;5009110;28;20563;-84
2021/07/21 06:51:20;;;;;;;4.43;2.80;;;24.40;50.40;;;;;;5009224;28;20498;-84
2021/07/21 06:53:47;;;;;;;3.38;2.22;;;24.00;52.10;;;;;;5026518;28;20195;-84
2021/07/21 06:56:13;;;;;;;5.05;2.30;;;23.90;52.10;;;;;;5009083;28;20364;-84
2021/07/21 06:58:39;;;;;;;14.02;2.85;;;24.10;52.30;;;;;;5026546;28;20136;-84
2021/07/21 07:01:05;;;;;;;4.70;2.33;;;24.20;52.10;;;;;;5008564;28;20044;-83
2021/07/21 07:03:31;;;;;;;7.63;2.35;;;24.40;51.30;;;;;;5027224;28;20445;-83
2021/07/21 07:05:58;;;;;;;2.83;2.30;;;25.10;50.30;;;;;;5026525;28;20033;-81
2021/07/21 07:08:24;;;;;;;6.45;2.80;;;26.00;48.10;;;;;;5008932;28;20047;-83
2021/07/21 07:10:49;;;;;;;4.72;2.30;;;27.30;45.60;;;;;;5009182;28;20030;-81
2021/07/21 07:13:15;;;;;;;3.55;2.47;;;28.10;43.60;;;;;;5026234;28;20092;-82
2021/07/21 07:15:41;;;;;;;4.53;2.00;;;28.50;43.30;;;;;;5026596;28;20032;-82
2021/07/21 07:18:09;;;;;;;4.53;2.13;;;28.80;42.70;;;;;;5025966;28;20033;-82
2021/07/21 07:20:35;;;;;;;5.13;2.53;;;28.60;42.60;;;;;;5008610;28;20036;-85
2021/07/21 07:23:00;;;;;;;5.45;2.38;;;27.90;44.20;;;;;;5008498;28;20037;-82
2021/07/21 07:25:26;;;;;;;4.15;2.35;;;27.60;45.20;;;;;;5008663;28;20026;-82
2021/07/21 07:27:52;;;;;;;5.05;2.42;;;28.20;45.30;;;;;;5026598;28;20453;-83
2021/07/21 07:30:17;;;;;;;6.53;2.47;;;28.80;44.00;;;;;;5026305;28;20053;-82
2021/07/21 07:32:43;;;;;;;6.00;2.45;;;29.40;41.10;;;;;;5026350;28;20056;-82
2021/07/21 07:35:09;;;;;;;9.02;2.75;;;29.50;41.10;;;;;;5008773;28;20075;-82
2021/07/21 07:37:35;;;;;;;5.60;2.92;;;29.30;41.60;;;;;;5026012;28;20040;-82
2021/07/21 07:40:02;;;;;;;5.30;2.30;;;28.90;42.30;;;;;;5008811;28;20382;-83
2021/07/21 07:42:28;;;;;;;4.18;1.95;;;28.80;44.20;;;;;;5026037;28;20033;-81
2021/07/21 07:44:53;;;;;;;4.22;2.72;;;28.80;43.20;;;;;;5008910;28;20065;-82
2021/07/21 07:47:19;;;;;;;4.25;2.70;;;28.60;43.20;;;;;;5008215;28;20518;-82
2021/07/21 07:49:45;;;;;;;5.60;2.40;;;28.30;43.10;;;;;;5008310;28;20040;-82
2021/07/21 07:52:10;;;;;;;4.63;2.50;;;28.10;43.70;;;;;;5008126;28;20091;-82
2021/07/21 07:54:36;;;;;;;4.25;2.65;;;27.90;45.20;;;;;;5027853;28;20100;-82
2021/07/21 07:57:02;;;;;;;6.00;2.65;;;27.70;45.00;;;;;;5011806;28;20547;-82
2021/07/21 07:59:27;;;;;;;5.22;2.67;;;27.40;45.30;;;;;;5012275;28;20032;-82
2021/07/21 08:01:53;;;;;;;5.82;2.38;;;26.70;46.70;;;;;;5012255;28;20045;-83
2021/07/21 08:04:19;;;;;;;9.48;2.50;;;26.40;47.80;;;;;;5012020;28;20087;-83
2021/07/21 08:06:44;;;;;;;10.18;2.50;;;26.10;48.80;;;;;;5029825;28;20042;-80
2021/07/21 08:09:13;;;;;;;6.00;2.83;;;25.90;49.50;;;;;;5011790;28;20620;-83
2021/07/21 08:11:45;;;;;;;4.40;2.72;;;25.80;50.30;;;;;;5029781;28;20056;-84
2021/07/21 08:14:12;;;;;;;3.92;2.53;;;25.60;49.60;;;;;;5029723;28;20025;-80
2021/07/21 08:16:38;;;;;;;11.50;3.20;;;25.50;50.00;;;;;;5029768;28;20021;-82
2021/07/21 08:19:04;;;;;;;6.00;2.50;;;25.40;50.40;;;;;;5012001;28;20033;-85
2021/07/21 08:21:30;;;;;;;4.53;3.10;;;25.20;51.20;;;;;;5012065;28;20061;-83
2021/07/21 08:23:55;;;;;;;4.40;2.85;;;25.00;51.30;;;;;;5029741;28;20065;-85
2021/07/21 08:26:21;;;;;;;5.47;2.72;;;25.00;51.00;;;;;;5029494;28;20490;-85
2021/07/21 08:28:46;;;;;;;5.22;2.38;;;24.70;52.10;;;;;;5011765;28;20033;-85
2021/07/21 08:31:12;;;;;;;5.45;2.90;;;24.50;52.50;;;;;;5011743;28;20036;-85
2021/07/21 08:33:38;;;;;;;5.72;2.47;;;24.40;53.30;;;;;;5011519;28;20113;-85
2021/07/21 08:36:04;;;;;;;2.80;2.20;;;24.40;53.50;;;;;;5012402;28;20026;-85
2021/07/21 08:38:29;;;;;;;4.45;2.13;;;24.40;52.80;;;;;;5011465;28;20303;-85
2021/07/21 08:40:56;;;;;;;4.93;1.75;;;24.40;53.00;;;;;;5012134;28;20482;-85
2021/07/21 08:43:22;;;;;;;3.55;1.83;;;24.40;52.80;;;;;;5029665;28;20098;-86
2021/07/21 08:45:48;;;;;;;3.50;2.10;;;24.30;53.00;;;;;;5028889;28;20025;-86
2021/07/21 08:48:14;;;;;;;5.10;2.10;;;24.20;53.90;;;;;;5011362;28;20052;-85
2021/07/21 08:50:45;;;;;;;8.18;1.63;;;24.10;54.80;;;;;;5011680;28;20022;-86
2021/07/21 08:53:11;;;;;;;3.38;1.90;;;24.10;54.70;;;;;;5028958;28;20048;-86
2021/07/21 08:55:37;;;;;;;4.45;1.88;;;24.20;54.30;;;;;;5029293;28;20071;-84
2021/07/21 08:58:04;;;;;;;2.05;1.38;;;24.10;53.80;;;;;;5029138;28;20037;-84
2021/07/21 09:00:29;;;;;;;4.22;1.90;;;24.00;54.60;;;;;;5028636;28;20068;-84
2021/07/21 09:02:55;;;;;;;5.65;2.17;;;24.00;55.20;;;;;;5029038;28;20145;-84
2021/07/21 09:05:21;;;;;;;6.15;2.47;;;24.00;54.90;;;;;;5028648;28;20050;-85
2021/07/21 09:07:47;;;;;;;3.08;2.00;;;24.00;55.50;;;;;;5011036;28;20033;-88
2021/07/21 09:10:16;;;;;;;5.53;2.38;;;24.10;55.30;;;;;;5028619;28;20029;-85
2021/07/21 09:12:44;;;;;;;4.72;2.15;;;24.00;56.30;;;;;;5028923;28;20117;-81
2021/07/21 09:15:16;;;;;;;6.95;2.60;;;24.10;56.60;;;;;;5010289;28;20053;-84
2021/07/21 09:18:00;;;;;;;2.95;2.00;;;24.20;56.80;;;;;;5028721;28;20029;-84
2021/07/21 09:20:26;;;;;;;4.10;2.15;;;24.40;56.50;;;;;;5010904;28;20029;-84
2021/07/21 09:22:53;;;;;;;3.10;2.10;;;24.50;56.90;;;;;;5028309;28;20066;-84
2021/07/21 09:25:23;;;;;;;4.00;2.15;;;24.70;55.80;;;;;;5029163;28;20117;-84
2021/07/21 09:28:00;;;;;;;4.07;2.00;;;24.70;55.50;;;;;;5011046;28;20029;-85
2021/07/21 09:30:34;;;;;;;2.88;2.08;;;24.70;54.90;;;;;;5027942;28;20028;-84
2021/07/21 09:33:03;;;;;;;3.80;1.63;;;24.80;55.40;;;;;;5010598;28;20038;-85
2021/07/21 09:35:41;;;;;;;2.85;1.40;;;25.30;53.20;;;;;;5010932;28;20040;-80
2021/07/21 09:38:12;;;;;;;5.15;1.23;;;25.70;52.10;;;;;;5028049;28;20029;-82
2021/07/21 09:40:46;;;;;;;3.15;1.20;;;25.80;49.60;;;;;;5028109;28;20063;-84
2021/07/21 09:43:18;;;;;;;2.53;1.40;;;25.50;51.30;;;;;;5028549;28;20033;-83
2021/07/21 09:45:45;;;;;;;2.97;1.55;;;25.30;51.00;;;;;;5027711;28;20028;-83
2021/07/21 09:48:12;;;;;;;2.63;1.58;;;25.30;52.60;;;;;;5010291;28;20401;-82
2021/07/21 09:50:43;;;;;;;2.55;1.55;;;25.30;51.50;;;;;;5009907;28;20506;-83
2021/07/21 09:53:12;;;;;;;5.45;1.45;;;25.30;51.90;;;;;;5027735;28;20068;-85
2021/07/21 09:55:39;;;;;;;2.10;1.30;;;25.10;52.20;;;;;;5010336;28;20032;-83
2021/07/21 09:58:06;;;;;;;6.40;1.42;;;25.10;52.10;;;;;;5027891;28;20033;-83
2021/07/21 10:00:36;;;;;;;3.08;1.73;;;24.90;52.80;;;;;;5027568;28;20025;-83
2021/07/21 10:03:13;;;;;;;2.95;1.58;;;24.70;53.30;;;;;;5027721;28;20026;-84
2021/07/21 10:06:01;;;;;;;3.28;1.48;;;24.60;53.10;;;;;;5006319;28;20608;-84
2021/07/21 10:08:34;;;;;;;6.88;1.50;;;24.40;53.70;;;;;;5006915;28;20572;-85
2021/07/21 10:11:30;;;;;;;2.85;1.10;;;24.30;54.40;;;;;;5006457;28;20029;-85
2021/07/21 10:14:01;;;;;;;3.85;1.50;;;24.10;54.00;;;;;;5006338;28;20497;-85
2021/07/21 10:16:47;;;;;;;4.53;1.67;;;24.00;53.20;;;;;;5006085;28;20136;-86
2021/07/21 10:19:25;;;;;;;5.22;1.50;;;24.00;53.70;;;;;;5006807;28;20029;-86
2021/07/21 10:22:02;;;;;;;5.13;1.77;;;23.90;54.20;;;;;;5007933;28;20748;-87
2021/07/21 10:24:30;;;;;;;7.40;1.65;;;23.80;55.30;;;;;;5006678;28;20133;-85
2021/07/21 10:26:57;;;;;;;4.43;1.60;;;23.80;55.90;;;;;;5007315;28;20018;-85
2021/07/21 10:29:23;;;;;;;2.72;1.42;;;23.70;56.20;;;;;;5005837;28;20111;-84
2021/07/21 10:31:49;;;;;;;4.28;1.80;;;23.70;56.90;;;;;;5007543;28;20493;-83
2021/07/21 10:34:20;;;;;;;6.95;1.83;;;23.70;57.00;;;;;;5007326;28;20406;-85
2021/07/21 10:36:46;;;;;;;2.92;1.40;;;23.80;56.40;;;;;;5006019;28;20045;-85
2021/07/21 10:39:44;;;;;;;2.88;1.58;;;23.80;56.50;;;;;;5007393;28;20018;-83
2021/07/21 10:42:15;;;;;;;2.67;1.60;;;23.90;56.40;;;;;;5005694;28;20037;-84
2021/07/21 10:44:40;;;;;;;7.38;1.73;;;24.10;56.80;;;;;;5006596;28;20026;-84
2021/07/21 10:47:24;;;;;;;7.53;1.83;;;24.30;56.50;;;;;;5007407;28;20037;-84
2021/07/21 10:49:55;;;;;;;3.63;1.77;;;24.40;56.30;;;;;;5007316;28;20026;-84
2021/07/21 11:00:23;;;;;;;2.60;1.70;;;24.70;55.50;;;;;;5006359;28;20029;-85
2021/07/21 11:02:52;;;;;;;2.97;1.90;;;25.00;54.70;;;;;;5005998;28;20045;-85
2021/07/21 11:05:39;;;;;;;9.43;1.88;;;25.10;54.70;;;;;;5005762;28;20423;-84
2021/07/21 11:08:16;;;;;;;4.00;1.90;;;25.50;53.60;;;;;;5001849;28;20033;-83
2021/07/21 11:10:44;;;;;;;5.38;2.17;;;25.60;54.30;;;;;;5007023;28;20668;-82
2021/07/21 11:13:13;;;;;;;5.35;1.80;;;25.80;54.10;;;;;;5006855;28;20799;-83
2021/07/21 11:15:47;;;;;;;2.67;1.63;;;26.10;53.70;;;;;;5007066;28;20054;-80
2021/07/21 11:18:21;;;;;;;2.55;1.60;;;26.40;52.50;;;;;;5007335;28;20501;-80
2021/07/21 11:21:01;;;;;;;8.10;1.90;;;26.70;52.10;;;;;;5006552;28;20117;-81
2021/07/21 11:23:47;;;;;;;4.63;1.88;;;26.90;50.20;;;;;;5006313;28;20171;-82
2021/07/21 11:26:31;;;;;;;3.88;1.48;;;27.10;49.90;;;;;;5007209;28;20026;-82
2021/07/21 11:28:59;;;;;;;2.78;1.63;;;27.40;49.70;;;;;;5006129;28;20229;-82
2021/07/21 11:31:56;;;;;;;5.15;1.40;;;27.50;49.40;;;;;;5010767;28;20053;-82
2021/07/21 11:34:33;;;;;;;5.43;1.40;;;27.50;47.50;;;;;;5010639;28;20033;-83
2021/07/21 11:37:00;;;;;;;2.30;1.65;;;27.40;45.70;;;;;;5009076;28;20061;-84
2021/07/21 11:39:34;;;;;;;3.63;1.50;;;27.40;45.70;;;;;;5010811;28;20030;-82
2021/07/21 11:42:02;;;;;;;6.22;1.20;;;27.10;46.30;;;;;;5010265;28;20030;-84
2021/07/21 11:44:32;;;;;;;3.53;1.35;;;26.90;47.00;;;;;;5008501;28;20064;-84
2021/07/21 11:47:00;;;;;;;3.08;2.00;;;26.70;48.60;;;;;;5010359;28;20494;-83
2021/07/21 11:49:32;;;;;;;4.30;1.65;;;26.70;48.80;;;;;;5010171;28;20037;-82
2021/07/21 11:52:01;;;;;;;2.53;1.42;;;26.90;47.70;;;;;;5009342;28;20580;-80
2021/07/21 11:54:30;;;;;;;3.33;1.40;;;26.70;46.70;;;;;;5008856;28;20030;-81
2021/07/21 11:56:58;;;;;;;4.15;1.52;;;26.90;48.00;;;;;;5010247;28;20185;-81
2021/07/21 11:59:33;;;;;;;2.38;1.33;;;27.20;47.10;;;;;;5009970;28;20036;-81
2021/07/21 12:02:04;;;;;;;4.57;1.63;;;27.40;46.60;;;;;;5008948;28;20133;-81
2021/07/21 12:04:30;;;;;;;3.78;1.50;;;27.50;46.40;;;;;;5008974;28;20060;-83
2021/07/21 12:06:56;;;;;;;7.82;1.52;;;27.50;46.60;;;;;;5010077;28;20030;-83
2021/07/21 12:09:29;;;;;;;2.40;1.10;;;27.70;46.40;;;;;;5009610;28;20454;-82
2021/07/21 12:12:00;;;;;;;3.05;1.27;;;27.70;45.50;;;;;;5010152;28;20281;-83
2021/07/21 12:14:27;;;;;;;3.45;1.35;;;27.60;46.10;;;;;;5008399;28;20096;-77
2021/07/21 12:17:00;;;;;;;2.53;1.23;;;27.60;45.90;;;;;;5008591;28;20026;-83
2021/07/21 12:19:26;;;;;;;5.10;1.27;;;27.40;46.50;;;;;;5009857;28;20026;-84
2021/07/21 12:22:15;;;;;;;2.95;1.45;;;27.30;46.50;;;;;;5008195;28;20049;-81
2021/07/21 12:24:52;;;;;;;3.20;1.40;;;27.20;46.80;;;;;;5008154;28;20088;-80
2021/07/21 12:27:41;;;;;;;2.25;1.45;;;27.10;46.40;;;;;;5008631;28;20289;-79
2021/07/21 12:30:11;;;;;;;5.32;1.50;;;27.20;46.60;;;;;;5008160;28;20034;-81
2021/07/21 12:32:37;;;;;;;1.65;1.00;;;27.40;46.70;;;;;;5008225;28;20060;-80
2021/07/21 12:35:06;;;;;;;9.02;1.90;;;27.40;46.10;;;;;;5007990;28;20030;-80
2021/07/21 12:37:39;;;;;;;2.55;1.45;;;27.50;46.20;;;;;;5008907;28;20037;-79
2021/07/21 12:40:11;;;;;;;2.85;1.40;;;27.60;46.30;;;;;;5008125;28;20037;-78
2021/07/21 12:42:37;;;;;;;2.88;1.65;;;27.60;44.70;;;;;;5007945;28;20088;-81
2021/07/21 12:45:09;;;;;;;2.47;1.30;;;27.30;45.70;;;;;;5007076;28;20486;-79
2021/07/21 12:47:40;;;;;;;3.60;1.40;;;27.10;46.70;;;;;;5008018;28;20030;-81
2021/07/21 12:50:10;;;;;;;2.88;1.67;;;26.90;46.80;;;;;;5006792;28;20038;-82
2021/07/21 12:52:45;;;;;;;2.55;1.50;;;26.70;46.70;;;;;;5007942;28;20022;-81
2021/07/21 12:55:13;;;;;;;2.63;1.52;;;26.50;46.70;;;;;;5006767;28;20615;-80
2021/07/21 12:57:50;;;;;;;4.13;1.77;;;26.60;47.60;;;;;;5005994;28;20742;-80
2021/07/21 13:00:19;;;;;;;3.60;1.15;;;26.80;47.50;;;;;;5008011;28;20088;-82
2021/07/21 13:03:04;;;;;;;2.50;1.58;;;27.00;46.50;;;;;;5006308;28;20076;-82
2021/07/21 13:05:38;;;;;;;3.95;1.55;;;27.10;48.10;;;;;;5007124;28;20054;-80
2021/07/21 13:08:11;;;;;;;3.45;1.40;;;27.40;48.60;;;;;;5008935;28;20117;-81
2021/07/21 13:10:42;;;;;;;2.22;1.25;;;27.60;46.20;;;;;;5008697;28;20026;-81
2021/07/21 13:13:21;;;;;;;2.30;1.42;;;27.60;46.30;;;;;;5007948;28;20080;-79